Portada
METAR-TAF:

METAR-TAF

Aeroports :

Georgetown, Illa de l'Ascensió

latitud: 07-58S, longitud: 014-24W, altitud: 86 m

Observació

L'informe es va fer fa 10 hores i 36 minuts, a les 04:50 UTC
Vent 8 kt del Sud/Sud-Est
Temperatura 24°C
Humitat 78%
Pressió 1013 hPa
Visibilitat 10 km o més
Escasses núvols a una alçada de 1800 ft

METAR: FHAW 090450Z 16008KT 9999 FEW018 24/20 Q1013 TEMPO 7000 -SHRA SCT015

Hora: 15:26 (15:26 UTC)

Pronòstic

L'informe es va fer fa 13 hores i 56 minuts, a les 01:30 UTC
Pronòstic vàlid del 09 a les 03 UTC al 09 a les 21 UTC
Vent 12 kt del Sud/Sud-Est
Visibilitat 10 km o més
Escasses núvols a una alçada de 1800 ft
Núvols disperses a una alçada de 4000 ft
Probabilitat 40% :
Temporalment
l' 09 a les 03 UTC al 09 a les 09 UTC
Visibilitat: 7000 m
Núvols disperses a una alçada de 1500 ft
xàfecs de pluja

TAF: FHAW 090130Z 0903/0921 15012KT 9999 FEW018 SCT040 PROB40 TEMPO 0903/0909 7000 -SHRA SCT015

Observacions i pronòstics meteorològics de més de 4000 aeroports (METAR i TAF).

Les estacions disponibles són els punts grocs i vermells al mapa.

Posi el ratolí al punt desitjat per veure el nom de l'estació.

Feu clic per veure les observacions i els pronòstics meteorològics.

Per canviar el mapa: feu clic els botons verds amb una creu de color negre per apropar; al botó verd amb un guió per allunyar la imatge; o en les fletxes verdes per a mapes adjacents.


METAR-TAF: